Rechercher aéroport 
image banner adimage banner ad
image banner ad

TFFC - Saint Francois

Situé à Saint Francois, Guadeloupe

ICAO - TFFC, IATA - SFC

Données fournies par Airmate  

Information générale

Coordonnées: N16°15'28" W61°15'45"
Élévation : 10 feet MSL.
Variation magnétique : -14.7° East
Évalué:
Voir évaluations: [VIEW]


Voir autres Aéroports à (unassigned)

Données opérationnelles

Accessible au public
Heure actuelle UTC:
Heure actuelle locale:
Météo à : TFFR - Pointe A Pitre Le Raizet ( 28 km )
METAR: TFFR 210330Z AUTO VRB03KT 9999 FEW047/// BKN058/// BKN068/// ///TCU 26/24 Q1014 TEMPO 4000 SHRA
TAF: TAF TFFR 202300Z 2100/2124 VRB02KT 9999 SCT035 BKN050 PROB40 TEMPO 2100/2124 4000 SHRA BKN015TCU BECMG 2106/2108 08010KT PROB40 TEMPO 2106/2113 2000 SHRA FEW012CB BKN015TCU
Voir NOTAMs / SUP AIP / TFR affectant cet aéroport [VIEW]
Fréquences de communication: [VIEW]

Pistes:

Identifiant RWYQFULongueur (ft)Largeur (ft)SurfaceLDA (ft)
1199°191659ASPH1916
29279°191659ASPH1916

Coordonnées de l'aéroport

Adresse: Saint Francois Guadeloupe

Autres services d'aviation

Clubs d'aviation (sans but lucratif)

Aéroclub Saint-François Caraïbes

Aéroclub Saint-François Caraïbes

ULM Caraïbes

ULM Caraïbes
+330690642848

Vue satellite de TFFC